Weather at Mar-a-Lago Helipad [CLOSED]

Public forecast

Using degrees Fahrenheit for public forecast. Weather courtesy of forecast.io.

Closest aviation weather report (METAR) to Mar-a-Lago Helipad

Closest report is Palm Beach International Airport, 3.1 nm (5.7 km) W.

2024/05/26 21:53 (retrieved 11 minutes ago)

KPBI 262153Z 12009KT 10SM FEW037 33/24 A2993 RMK AO2 SLP135 T03280239

Closest aviation forecast (TAF) to Mar-a-Lago Helipad

Closest forecast is Palm Beach International Airport, 3.1 nm (5.7 km) W.

2024/05/26 21:39 Ammendment (retrieved 25 minutes ago)

TAF AMD KPBI 262030Z 2621/2718 13011KT P6SM VCSH SCT030 SCT050 FM270000 16007KT P6SM FEW035 SCT250 FM270300 VRB05KT P6SM FEW035 FEW250 FM271600 15010KT P6SM FEW030 SCT050